Time;durP1;ratioP1;P1;durP2;ratioP2;P2;SDS_P1;SDS_P2;PMS_P1;PMS_P2;Temp;Humidity;BMP_temperature;BMP_pressure;BME280_temperature;BME280_humidity;BME280_pressure;Samples;Min_cycle;Max_cycle;Signal;HPM_P1;HPM_P2
2023/03/25 00:02:19;;;;;;;7.67;5.27;;;;;;;;;;758330;184;674619;-80
2023/03/25 00:04:49;;;;;;;9.60;5.27;;;;;;;;;;758458;184;655735;-78
2023/03/25 00:07:11;;;;;;;8.93;6.00;;;;;;;;;;761703;182;685756;-80
2023/03/25 00:09:37;;;;;;;8.73;5.67;;;;;;;;;;756184;182;627094;-78
2023/03/25 00:12:03;;;;;;;8.90;4.90;;;;;;;;;;748610;185;647987;-80
2023/03/25 00:14:31;;;;;;;8.70;5.70;;;;;;;;;;753182;183;636391;-79
2023/03/25 00:16:54;;;;;;;7.83;5.90;;;;;;;;;;761819;186;622097;-79
2023/03/25 00:19:20;;;;;;;9.67;5.63;;;;;;;;;;763396;182;629391;-80
2023/03/25 00:21:49;;;;;;;14.13;6.57;;;;;;;;;;768117;182;632630;-80
2023/03/25 00:24:16;;;;;;;9.13;6.90;;;;;;;;;;762792;183;654519;-80
2023/03/25 00:26:41;;;;;;;8.30;6.40;;;;;;;;;;747934;184;654755;-80
2023/03/25 00:29:04;;;;;;;9.07;6.50;;;;;;;;;;749366;184;623290;-79
2023/03/25 00:31:30;;;;;;;13.00;6.43;;;;;;;;;;747372;188;620921;-79
2023/03/25 00:33:56;;;;;;;9.33;6.40;;;;;;;;;;756701;185;631427;-79
2023/03/25 00:36:22;;;;;;;11.50;5.73;;;;;;;;;;759990;180;652903;-80
2023/03/25 00:38:48;;;;;;;8.90;6.40;;;;;;;;;;767252;178;629063;-79
2023/03/25 00:41:21;;;;;;;9.80;7.33;;;;;;;;;;768199;184;626268;-79
2023/03/25 00:43:43;;;;;;;10.77;6.30;;;;;;;;;;764107;181;620901;-78
2023/03/25 00:46:09;;;;;;;8.30;6.47;;;;;;;;;;758539;183;626915;-79
2023/03/25 00:48:35;;;;;;;8.60;6.07;;;;;;;;;;763586;182;618407;-79
2023/03/25 00:51:06;;;;;;;9.50;6.20;;;;;;;;;;767007;182;621708;-78
2023/03/25 00:53:26;;;;;;;14.17;5.93;;;;;;;;;;761385;181;618553;-78
2023/03/25 00:55:52;;;;;;;11.20;6.50;;;;;;;;;;763634;184;673096;-79
2023/03/25 00:58:18;;;;;;;8.13;5.67;;;;;;;;;;767180;181;628824;-80
2023/03/25 01:00:44;;;;;;;7.93;6.07;;;;;;;;;;763413;182;630058;-78
2023/03/25 01:03:11;;;;;;;8.20;6.03;;;;;;;;;;763591;183;630869;-80
2023/03/25 01:05:36;;;;;;;8.40;5.37;;;;;;;;;;772480;181;632592;-80
2023/03/25 01:08:02;;;;;;;9.80;5.67;;;;;;;;;;757202;182;639719;-79
2023/03/25 01:10:27;;;;;;;10.00;5.53;;;;;;;;;;758252;185;637786;-79
2023/03/25 01:12:53;;;;;;;6.80;5.30;;;;;;;;;;757729;182;619416;-79
2023/03/25 01:15:19;;;;;;;8.83;5.03;;;;;;;;;;760833;184;634712;-80
2023/03/25 01:17:45;;;;;;;9.70;6.20;;;;;;;;;;761835;184;618979;-79
2023/03/25 01:20:11;;;;;;;8.43;5.60;;;;;;;;;;765790;182;638024;-80
2023/03/25 01:22:37;;;;;;;7.17;5.53;;;;;;;;;;777632;181;634583;-79
2023/03/25 01:25:03;;;;;;;7.60;4.67;;;;;;;;;;759411;182;645517;-80
2023/03/25 01:27:29;;;;;;;7.27;4.20;;;;;;;;;;761949;181;645874;-79
2023/03/25 01:29:54;;;;;;;7.20;3.83;;;;;;;;;;765072;182;618409;-79
2023/03/25 01:32:20;;;;;;;5.57;3.63;;;;;;;;;;755944;182;658539;-79
2023/03/25 01:34:46;;;;;;;5.27;3.00;;;;;;;;;;761604;182;629463;-78
2023/03/25 01:37:12;;;;;;;4.37;2.80;;;;;;;;;;765868;185;634217;-78
2023/03/25 01:39:38;;;;;;;8.27;3.20;;;;;;;;;;761079;181;625560;-78
2023/03/25 01:42:04;;;;;;;6.23;3.47;;;;;;;;;;762304;183;627238;-79
2023/03/25 01:44:44;;;;;;;13.13;3.03;;;;;;;;;;763080;183;618915;-78
2023/03/25 01:47:10;;;;;;;9.80;3.67;;;;;;;;;;762996;179;633786;-78
2023/03/25 01:49:37;;;;;;;6.83;3.30;;;;;;;;;;764188;180;635136;-79
2023/03/25 01:52:03;;;;;;;13.97;4.80;;;;;;;;;;764712;183;676399;-79
2023/03/25 01:54:28;;;;;;;6.17;3.93;;;;;;;;;;757756;184;622070;-79
2023/03/25 01:56:54;;;;;;;6.83;3.27;;;;;;;;;;752777;188;637199;-78
2023/03/25 01:59:20;;;;;;;9.90;4.47;;;;;;;;;;755549;185;637980;-80
2023/03/25 02:01:46;;;;;;;6.80;4.13;;;;;;;;;;736889;186;639151;-79
2023/03/25 02:04:12;;;;;;;4.80;3.70;;;;;;;;;;753845;186;625059;-78
2023/03/25 02:06:47;;;;;;;11.20;4.03;;;;;;;;;;748246;186;638994;-79
2023/03/25 02:09:13;;;;;;;7.00;4.47;;;;;;;;;;755121;184;623438;-78
2023/03/25 02:11:39;;;;;;;8.03;4.20;;;;;;;;;;757541;185;638504;-78
2023/03/25 02:14:05;;;;;;;4.77;3.57;;;;;;;;;;774797;182;624704;-78
2023/03/25 02:16:34;;;;;;;14.73;4.53;;;;;;;;;;759570;183;640066;-79
2023/03/25 02:19:05;;;;;;;4.30;2.70;;;;;;;;;;760199;182;712937;-79
2023/03/25 02:21:34;;;;;;;9.47;2.80;;;;;;;;;;760821;182;690892;-75
2023/03/25 02:24:01;;;;;;;5.80;3.00;;;;;;;;;;765595;184;622148;-77
2023/03/25 02:26:35;;;;;;;6.97;2.97;;;;;;;;;;763477;183;628104;-78
2023/03/25 02:29:01;;;;;;;4.40;2.60;;;;;;;;;;760360;184;645124;-80
2023/03/25 02:31:27;;;;;;;5.20;2.67;;;;;;;;;;760593;181;629522;-80
2023/03/25 02:34:11;;;;;;;4.93;2.40;;;;;;;;;;768652;181;660986;-80
2023/03/25 02:36:52;;;;;;;6.43;3.17;;;;;;;;;;767266;181;615087;-79
2023/03/25 02:39:18;;;;;;;7.00;3.20;;;;;;;;;;754090;186;635160;-78
2023/03/25 02:42:00;;;;;;;4.60;3.00;;;;;;;;;;769927;180;648464;-78
2023/03/25 02:44:31;;;;;;;6.60;2.70;;;;;;;;;;751249;184;635098;-78
2023/03/25 02:46:57;;;;;;;4.70;2.60;;;;;;;;;;754056;185;630081;-80
2023/03/25 02:49:24;;;;;;;3.60;2.20;;;;;;;;;;763820;183;626427;-79
2023/03/25 02:51:50;;;;;;;4.13;2.83;;;;;;;;;;765922;185;620600;-80
2023/03/25 02:54:15;;;;;;;6.10;2.63;;;;;;;;;;750075;182;660437;-78
2023/03/25 02:56:43;;;;;;;11.57;3.00;;;;;;;;;;763774;183;626348;-78
2023/03/25 02:59:07;;;;;;;4.40;2.70;;;;;;;;;;767754;181;629442;-79
2023/03/25 03:01:33;;;;;;;8.40;3.37;;;;;;;;;;765727;182;625035;-79
2023/03/25 03:03:59;;;;;;;4.47;3.03;;;;;;;;;;762842;184;646409;-78
2023/03/25 03:06:24;;;;;;;3.93;2.60;;;;;;;;;;769246;182;632867;-76
2023/03/25 03:08:53;;;;;;;5.23;2.43;;;;;;;;;;763456;183;630310;-77
2023/03/25 03:11:20;;;;;;;4.77;2.40;;;;;;;;;;776795;179;624447;-78
2023/03/25 03:13:46;;;;;;;8.37;2.80;;;;;;;;;;768291;179;633301;-77
2023/03/25 03:16:13;;;;;;;3.90;2.37;;;;;;;;;;765814;182;635759;-76
2023/03/25 03:18:43;;;;;;;4.93;2.67;;;;;;;;;;763485;182;643672;-78
2023/03/25 03:21:12;;;;;;;6.43;3.07;;;;;;;;;;763300;182;641452;-78
2023/03/25 03:23:39;;;;;;;4.70;2.60;;;;;;;;;;767600;182;623124;-77
2023/03/25 03:26:05;;;;;;;6.23;2.70;;;;;;;;;;770200;182;616156;-77
2023/03/25 03:28:31;;;;;;;4.97;2.60;;;;;;;;;;772827;179;629861;-76
2023/03/25 03:30:57;;;;;;;5.93;2.80;;;;;;;;;;763531;183;638387;-79
2023/03/25 03:33:25;;;;;;;4.17;2.73;;;;;;;;;;769385;183;634187;-79
2023/03/25 03:35:50;;;;;;;3.90;2.40;;;;;;;;;;764861;184;634565;-78
2023/03/25 03:38:16;;;;;;;4.47;2.70;;;;;;;;;;759044;181;633628;-77
2023/03/25 03:40:42;;;;;;;4.23;2.47;;;;;;;;;;761217;182;635250;-78
2023/03/25 03:43:08;;;;;;;5.27;2.60;;;;;;;;;;765591;182;639416;-79
2023/03/25 03:45:36;;;;;;;4.97;2.90;;;;;;;;;;762554;181;625557;-78
2023/03/25 03:48:02;;;;;;;6.53;3.00;;;;;;;;;;765314;181;623305;-79
2023/03/25 03:50:27;;;;;;;7.50;3.60;;;;;;;;;;767797;181;625482;-78
2023/03/25 03:52:58;;;;;;;5.20;3.10;;;;;;;;;;746852;185;645377;-80
2023/03/25 03:55:27;;;;;;;7.10;3.17;;;;;;;;;;756370;182;628551;-77
2023/03/25 03:57:53;;;;;;;5.93;2.90;;;;;;;;;;764958;182;625475;-78
2023/03/25 04:00:21;;;;;;;6.93;3.87;;;;;;;;;;770174;182;618061;-79
2023/03/25 04:02:46;;;;;;;4.13;2.87;;;;;;;;;;769503;181;647586;-78
2023/03/25 04:05:12;;;;;;;5.27;3.20;;;;;;;;;;765591;182;640089;-79
2023/03/25 04:07:41;;;;;;;9.50;3.10;;;;;;;;;;760815;185;633321;-79
2023/03/25 04:10:13;;;;;;;6.13;3.00;;;;;;;;;;761627;182;624648;-77
2023/03/25 04:12:36;;;;;;;6.90;3.27;;;;;;;;;;771442;179;647787;-79
2023/03/25 04:15:02;;;;;;;8.23;3.07;;;;;;;;;;764666;181;633171;-79
2023/03/25 04:17:28;;;;;;;6.57;2.77;;;;;;;;;;765602;183;630635;-77
2023/03/25 04:19:54;;;;;;;5.53;3.07;;;;;;;;;;764181;180;646574;-79
2023/03/25 04:22:20;;;;;;;4.50;2.97;;;;;;;;;;769790;181;615442;-78
2023/03/25 04:24:48;;;;;;;7.80;2.77;;;;;;;;;;761306;184;621297;-78
2023/03/25 04:27:12;;;;;;;5.40;2.80;;;;;;;;;;753911;184;620358;-78
2023/03/25 04:29:39;;;;;;;4.93;2.53;;;;;;;;;;754056;184;621358;-79
2023/03/25 04:32:04;;;;;;;3.93;2.27;;;;;;;;;;757635;185;638026;-78
2023/03/25 04:34:29;;;;;;;5.30;2.60;;;;;;;;;;771758;181;629247;-78
2023/03/25 04:36:55;;;;;;;3.60;2.27;;;;;;;;;;776559;180;624282;-79
2023/03/25 04:39:21;;;;;;;5.30;3.03;;;;;;;;;;764184;181;636999;-81
2023/03/25 04:41:48;;;;;;;5.60;2.30;;;;;;;;;;758737;181;625213;-79
2023/03/25 04:44:14;;;;;;;5.97;2.80;;;;;;;;;;742495;183;702867;-77
2023/03/25 04:46:40;;;;;;;14.93;3.77;;;;;;;;;;741521;184;1541638;-80
2023/03/25 04:49:12;;;;;;;5.33;2.67;;;;;;;;;;747777;185;655931;-79
2023/03/25 04:51:31;;;;;;;3.87;2.50;;;;;;;;;;744629;185;625429;-80
2023/03/25 04:53:57;;;;;;;6.30;2.90;;;;;;;;;;767854;181;633977;-81
2023/03/25 04:56:23;;;;;;;6.10;3.07;;;;;;;;;;761947;182;649888;-78
2023/03/25 04:58:49;;;;;;;12.77;4.00;;;;;;;;;;753521;183;677362;-79
2023/03/25 05:01:18;;;;;;;5.07;3.77;;;;;;;;;;750719;185;641099;-79
2023/03/25 05:03:44;;;;;;;5.17;3.20;;;;;;;;;;754412;184;636816;-78
2023/03/25 05:06:10;;;;;;;6.73;2.90;;;;;;;;;;768623;182;649625;-77
2023/03/25 05:08:36;;;;;;;6.47;2.90;;;;;;;;;;753899;182;737798;-78
2023/03/25 05:11:02;;;;;;;5.57;2.87;;;;;;;;;;765795;179;625921;-79
2023/03/25 05:13:28;;;;;;;6.63;2.60;;;;;;;;;;766898;182;684626;-79
2023/03/25 05:15:53;;;;;;;4.80;3.03;;;;;;;;;;748317;184;765745;-78
2023/03/25 05:18:20;;;;;;;5.10;3.50;;;;;;;;;;756234;183;645778;-77
2023/03/25 05:20:45;;;;;;;6.77;2.90;;;;;;;;;;754840;182;622480;-79
2023/03/25 05:23:16;;;;;;;3.90;2.90;;;;;;;;;;763216;181;638952;-79
2023/03/25 05:25:39;;;;;;;4.13;2.60;;;;;;;;;;759131;183;1246739;-80
2023/03/25 05:28:04;;;;;;;5.87;3.13;;;;;;;;;;761051;182;650714;-78
2023/03/25 05:30:31;;;;;;;4.40;2.70;;;;;;;;;;771235;182;626352;-79
2023/03/25 05:32:58;;;;;;;6.40;2.60;;;;;;;;;;762746;181;633257;-77
2023/03/25 05:35:21;;;;;;;6.77;3.40;;;;;;;;;;752997;183;706555;-80
2023/03/25 05:37:49;;;;;;;7.70;3.40;;;;;;;;;;763991;184;622145;-79
2023/03/25 05:40:13;;;;;;;3.60;2.33;;;;;;;;;;766043;182;637483;-78
2023/03/25 05:42:47;;;;;;;4.33;2.47;;;;;;;;;;761884;181;675815;-78
2023/03/25 05:45:05;;;;;;;5.63;3.60;;;;;;;;;;761333;182;618732;-79
2023/03/25 05:47:31;;;;;;;6.80;3.60;;;;;;;;;;756035;183;674272;-78
2023/03/25 05:49:57;;;;;;;5.60;2.50;;;;;;;;;;763588;181;624427;-77
2023/03/25 05:52:23;;;;;;;4.87;2.57;;;;;;;;;;763063;180;636499;-80
2023/03/25 05:54:50;;;;;;;6.10;2.57;;;;;;;;;;767600;180;631460;-77
2023/03/25 05:57:15;;;;;;;8.70;3.03;;;;;;;;;;758275;182;624040;-78
2023/03/25 05:59:41;;;;;;;4.32;2.70;;;;;;;;;;757997;184;651017;-80
2023/03/25 06:02:07;;;;;;;4.73;2.70;;;;;;;;;;760914;183;636057;-78
2023/03/25 06:04:32;;;;;;;4.67;2.80;;;;;;;;;;761526;182;636162;-80
2023/03/25 06:06:58;;;;;;;3.90;2.60;;;;;;;;;;763437;182;645140;-77
2023/03/25 06:09:24;;;;;;;5.53;2.70;;;;;;;;;;762832;180;625107;-79
2023/03/25 06:11:52;;;;;;;7.33;3.13;;;;;;;;;;760771;178;649068;-80
2023/03/25 06:14:16;;;;;;;6.70;2.80;;;;;;;;;;757804;180;861056;-80
2023/03/25 06:16:42;;;;;;;4.03;2.40;;;;;;;;;;762998;183;651417;-79
2023/03/25 06:19:08;;;;;;;5.13;3.00;;;;;;;;;;769794;182;635778;-80
2023/03/25 06:21:34;;;;;;;5.40;3.03;;;;;;;;;;763761;181;622648;-77
2023/03/25 06:24:00;;;;;;;2.90;2.40;;;;;;;;;;760702;181;855045;-80
2023/03/25 06:26:26;;;;;;;4.43;2.33;;;;;;;;;;769594;180;625268;-79
2023/03/25 06:28:52;;;;;;;7.10;2.83;;;;;;;;;;765019;181;618916;-81
2023/03/25 06:31:19;;;;;;;4.20;2.53;;;;;;;;;;758485;183;634164;-78
2023/03/25 06:33:45;;;;;;;4.63;2.60;;;;;;;;;;751146;182;710085;-78
2023/03/25 06:36:11;;;;;;;5.13;2.90;;;;;;;;;;767708;181;618060;-79
2023/03/25 06:38:36;;;;;;;5.40;3.00;;;;;;;;;;771110;181;619769;-79
2023/03/25 06:41:02;;;;;;;4.17;2.57;;;;;;;;;;764862;182;627788;-81
2023/03/25 06:43:28;;;;;;;8.23;2.50;;;;;;;;;;769351;183;648751;-79
2023/03/25 06:45:54;;;;;;;3.53;2.20;;;;;;;;;;762387;183;636792;-78
2023/03/25 06:48:20;;;;;;;5.20;2.40;;;;;;;;;;761547;184;628786;-79
2023/03/25 06:50:46;;;;;;;6.50;3.13;;;;;;;;;;768404;182;630464;-79
2023/03/25 06:53:12;;;;;;;5.30;3.33;;;;;;;;;;753445;184;638942;-79
2023/03/25 06:55:38;;;;;;;5.40;2.90;;;;;;;;;;750053;184;632977;-80
2023/03/25 06:58:04;;;;;;;3.87;2.90;;;;;;;;;;766475;181;633640;-79
2023/03/25 07:00:30;;;;;;;4.90;2.63;;;;;;;;;;754971;182;621210;-80
2023/03/25 07:02:57;;;;;;;6.33;2.97;;;;;;;;;;755263;184;643390;-79
2023/03/25 07:05:21;;;;;;;9.73;3.20;;;;;;;;;;761453;183;658917;-80
2023/03/25 07:07:47;;;;;;;4.17;2.90;;;;;;;;;;762392;184;630816;-79
2023/03/25 07:10:13;;;;;;;9.63;2.78;;;;;;;;;;755236;184;653011;-80
2023/03/25 07:12:39;;;;;;;6.80;3.28;;;;;;;;;;756493;184;810469;-78
2023/03/25 07:15:06;;;;;;;4.80;3.10;;;;;;;;;;761176;182;709631;-79
2023/03/25 07:17:32;;;;;;;4.43;2.77;;;;;;;;;;755529;182;627347;-80
2023/03/25 07:19:58;;;;;;;4.70;2.43;;;;;;;;;;758749;183;637883;-80
2023/03/25 07:22:26;;;;;;;8.27;2.75;;;;;;;;;;755546;182;1462580;-79
2023/03/25 07:24:52;;;;;;;3.27;2.47;;;;;;;;;;765601;180;654939;-78
2023/03/25 07:27:18;;;;;;;5.07;3.20;;;;;;;;;;751644;182;637258;-81
2023/03/25 07:29:44;;;;;;;4.67;2.90;;;;;;;;;;754227;182;633733;-80
2023/03/25 07:32:10;;;;;;;5.43;3.50;;;;;;;;;;758029;182;611957;-81
2023/03/25 07:34:36;;;;;;;6.43;2.70;;;;;;;;;;761299;184;623337;-76
2023/03/25 07:37:02;;;;;;;3.97;2.67;;;;;;;;;;756115;182;644515;-78
2023/03/25 07:39:27;;;;;;;4.07;2.40;;;;;;;;;;766604;182;634049;-75
2023/03/25 07:41:53;;;;;;;6.27;3.07;;;;;;;;;;758161;183;632497;-78
2023/03/25 07:44:20;;;;;;;5.43;3.10;;;;;;;;;;756006;184;657449;-77
2023/03/25 07:46:46;;;;;;;5.30;2.50;;;;;;;;;;759026;182;628811;-80
2023/03/25 07:49:12;;;;;;;4.73;3.30;;;;;;;;;;764593;182;639463;-79
2023/03/25 07:51:38;;;;;;;4.37;3.10;;;;;;;;;;762746;181;615673;-79
2023/03/25 07:54:04;;;;;;;7.80;3.23;;;;;;;;;;764474;181;638372;-80
2023/03/25 07:56:30;;;;;;;5.50;3.20;;;;;;;;;;765370;181;639466;-78
2023/03/25 07:58:55;;;;;;;4.50;2.20;;;;;;;;;;754305;185;639811;-78
2023/03/25 08:01:21;;;;;;;5.53;2.90;;;;;;;;;;752333;182;637874;-79
2023/03/25 08:03:47;;;;;;;4.87;3.27;;;;;;;;;;760583;182;627980;-78
2023/03/25 08:06:13;;;;;;;7.47;2.97;;;;;;;;;;762111;183;625455;-78
2023/03/25 08:08:39;;;;;;;4.67;3.47;;;;;;;;;;767018;181;621174;-78
2023/03/25 08:11:05;;;;;;;4.30;3.00;;;;;;;;;;764267;182;649347;-78
2023/03/25 08:13:31;;;;;;;5.50;3.30;;;;;;;;;;772516;179;640068;-79
2023/03/25 08:15:56;;;;;;;6.30;3.50;;;;;;;;;;758564;184;637310;-81
2023/03/25 08:18:22;;;;;;;6.10;3.23;;;;;;;;;;748196;185;643729;-80
2023/03/25 08:20:49;;;;;;;6.33;2.87;;;;;;;;;;756337;184;645282;-81
2023/03/25 08:23:17;;;;;;;4.43;2.90;;;;;;;;;;760965;182;627182;-78
2023/03/25 08:25:40;;;;;;;4.73;2.90;;;;;;;;;;749163;185;621255;-78
2023/03/25 08:28:07;;;;;;;4.67;3.17;;;;;;;;;;761135;182;635443;-79
2023/03/25 08:30:37;;;;;;;4.90;3.10;;;;;;;;;;754500;183;752969;-79
2023/03/25 08:32:58;;;;;;;3.83;2.93;;;;;;;;;;753075;182;676047;-79
2023/03/25 08:35:23;;;;;;;5.47;2.57;;;;;;;;;;750887;182;642245;-80
2023/03/25 08:37:49;;;;;;;6.23;3.30;;;;;;;;;;761861;184;635529;-77
2023/03/25 08:40:16;;;;;;;4.20;2.33;;;;;;;;;;753124;183;643680;-79
2023/03/25 08:42:42;;;;;;;5.73;2.70;;;;;;;;;;747250;188;639917;-78
2023/03/25 08:45:08;;;;;;;7.93;3.10;;;;;;;;;;737849;188;630593;-79
2023/03/25 08:47:34;;;;;;;7.03;2.40;;;;;;;;;;743146;185;635000;-79
2023/03/25 08:50:00;;;;;;;5.23;2.47;;;;;;;;;;743635;187;682659;-78
2023/03/25 08:52:26;;;;;;;4.67;2.87;;;;;;;;;;756759;182;625875;-78
2023/03/25 08:54:52;;;;;;;6.53;3.00;;;;;;;;;;758563;184;640510;-79
2023/03/25 08:57:17;;;;;;;3.93;2.63;;;;;;;;;;766741;181;616806;-80
2023/03/25 08:59:43;;;;;;;5.27;3.00;;;;;;;;;;765468;183;627472;-80
2023/03/25 09:02:10;;;;;;;4.20;2.70;;;;;;;;;;765715;182;645302;-81
2023/03/25 09:04:37;;;;;;;4.10;2.53;;;;;;;;;;766887;181;626388;-79
2023/03/25 09:07:01;;;;;;;6.23;3.37;;;;;;;;;;762915;183;631428;-80
2023/03/25 09:09:28;;;;;;;5.07;2.80;;;;;;;;;;768130;181;655978;-78
2023/03/25 09:11:53;;;;;;;8.50;2.90;;;;;;;;;;759287;185;626643;-79
2023/03/25 09:14:19;;;;;;;5.60;2.10;;;;;;;;;;756293;183;633720;-79
2023/03/25 09:16:44;;;;;;;6.07;2.40;;;;;;;;;;762593;183;636756;-79
2023/03/25 09:19:10;;;;;;;7.10;1.87;;;;;;;;;;765333;181;619198;-78
2023/03/25 09:21:36;;;;;;;3.47;1.87;;;;;;;;;;755105;183;630661;-79
2023/03/25 09:24:02;;;;;;;4.10;1.93;;;;;;;;;;759755;182;637525;-80
2023/03/25 09:26:28;;;;;;;4.30;2.00;;;;;;;;;;757954;183;628169;-79
2023/03/25 09:28:55;;;;;;;4.70;2.17;;;;;;;;;;759677;182;625427;-78
2023/03/25 09:31:20;;;;;;;3.90;1.77;;;;;;;;;;770675;181;653314;-81
2023/03/25 09:33:46;;;;;;;4.33;1.90;;;;;;;;;;764432;183;631188;-80
2023/03/25 09:36:12;;;;;;;5.10;2.30;;;;;;;;;;761954;181;664433;-80
2023/03/25 09:38:38;;;;;;;4.27;2.27;;;;;;;;;;758090;184;639471;-78
2023/03/25 09:41:04;;;;;;;5.97;2.90;;;;;;;;;;767387;183;623216;-78
2023/03/25 09:43:45;;;;;;;3.40;1.87;;;;;;;;;;765760;183;649976;-77
2023/03/25 09:46:11;;;;;;;5.80;2.00;;;;;;;;;;748180;183;618105;-79
2023/03/25 09:48:38;;;;;;;4.30;2.00;;;;;;;;;;763391;180;628710;-80
2023/03/25 09:51:09;;;;;;;4.60;1.90;;;;;;;;;;761320;184;659535;-79
2023/03/25 09:53:39;;;;;;;4.90;1.67;;;;;;;;;;761947;183;631177;-80
2023/03/25 09:56:05;;;;;;;4.07;2.00;;;;;;;;;;736634;187;670890;-80
2023/03/25 09:58:34;;;;;;;4.50;1.60;;;;;;;;;;742951;183;645183;-78
2023/03/25 10:01:14;;;;;;;4.77;2.03;;;;;;;;;;753080;185;621337;-78
2023/03/25 10:03:41;;;;;;;3.60;1.37;;;;;;;;;;760410;183;628509;-80
2023/03/25 10:06:10;;;;;;;3.60;1.70;;;;;;;;;;753304;183;673870;-81
2023/03/25 10:08:40;;;;;;;3.17;1.73;;;;;;;;;;765118;183;632891;-78
2023/03/25 10:11:07;;;;;;;3.70;1.80;;;;;;;;;;771339;179;643272;-79
2023/03/25 10:13:38;;;;;;;2.97;1.63;;;;;;;;;;768748;180;638640;-79
2023/03/25 10:16:10;;;;;;;3.03;1.57;;;;;;;;;;767375;181;631873;-78
2023/03/25 10:18:41;;;;;;;2.90;1.50;;;;;;;;;;762213;183;648645;-79
2023/03/25 10:21:10;;;;;;;2.77;1.90;;;;;;;;;;757664;183;638697;-78
2023/03/25 10:23:51;;;;;;;2.60;1.20;;;;;;;;;;762227;183;631988;-78
2023/03/25 10:26:18;;;;;;;8.33;1.77;;;;;;;;;;747877;183;646159;-79
2023/03/25 10:28:43;;;;;;;7.60;2.27;;;;;;;;;;766584;180;626668;-79
2023/03/25 10:31:10;;;;;;;4.30;1.87;;;;;;;;;;764397;183;621021;-79
2023/03/25 10:33:37;;;;;;;4.20;2.17;;;;;;;;;;748633;184;697981;-79
2023/03/25 10:36:03;;;;;;;5.13;1.70;;;;;;;;;;752772;185;628194;-80
2023/03/25 10:38:29;;;;;;;5.80;1.90;;;;;;;;;;760187;182;646597;-78
2023/03/25 10:40:58;;;;;;;2.70;1.40;;;;;;;;;;766958;182;645949;-78
2023/03/25 10:43:25;;;;;;;2.80;1.23;;;;;;;;;;763167;180;623968;-78
2023/03/25 10:45:51;;;;;;;2.67;1.40;;;;;;;;;;739593;187;624028;-77
2023/03/25 10:48:16;;;;;;;6.27;2.00;;;;;;;;;;758391;182;661062;-78
2023/03/25 10:50:42;;;;;;;2.90;1.33;;;;;;;;;;757812;182;639401;-78
2023/03/25 10:53:08;;;;;;;2.83;1.40;;;;;;;;;;767058;182;677623;-79
2023/03/25 10:55:34;;;;;;;4.50;1.40;;;;;;;;;;747093;185;674708;-79
2023/03/25 10:58:00;;;;;;;3.90;1.57;;;;;;;;;;763891;180;650162;-78
2023/03/25 11:00:26;;;;;;;3.33;1.83;;;;;;;;;;765989;183;622629;-78
2023/03/25 11:02:53;;;;;;;3.57;1.73;;;;;;;;;;755196;183;1471024;-79
2023/03/25 11:05:18;;;;;;;3.03;1.40;;;;;;;;;;767672;181;635149;-79
2023/03/25 11:07:45;;;;;;;4.53;1.70;;;;;;;;;;756423;185;620130;-78
2023/03/25 11:10:28;;;;;;;9.33;2.10;;;;;;;;;;745427;188;625293;-78
2023/03/25 11:12:55;;;;;;;4.60;1.50;;;;;;;;;;764809;182;674447;-79
2023/03/25 11:15:20;;;;;;;4.00;1.57;;;;;;;;;;762418;182;684860;-78
2023/03/25 11:17:45;;;;;;;3.80;1.30;;;;;;;;;;761904;181;627617;-80
2023/03/25 11:20:16;;;;;;;2.70;1.43;;;;;;;;;;762308;182;635806;-79
2023/03/25 11:22:42;;;;;;;3.17;1.70;;;;;;;;;;767459;183;629568;-78
2023/03/25 11:25:12;;;;;;;4.70;1.43;;;;;;;;;;767459;182;630735;-78
2023/03/25 11:27:39;;;;;;;6.57;1.47;;;;;;;;;;764151;182;639827;-79
2023/03/25 11:30:06;;;;;;;5.33;1.60;;;;;;;;;;763046;184;627849;-79
2023/03/25 11:32:32;;;;;;;5.50;1.60;;;;;;;;;;758954;181;633427;-80
2023/03/25 11:34:58;;;;;;;4.87;1.20;;;;;;;;;;752299;183;637336;-79
2023/03/25 11:37:26;;;;;;;3.50;1.80;;;;;;;;;;754336;185;619223;-79
2023/03/25 11:39:50;;;;;;;3.57;1.87;;;;;;;;;;747121;183;636853;-80
2023/03/25 11:42:31;;;;;;;3.20;1.40;;;;;;;;;;746566;185;773926;-80
2023/03/25 11:44:58;;;;;;;3.60;1.60;;;;;;;;;;749274;185;632206;-79
2023/03/25 11:47:25;;;;;;;4.73;1.50;;;;;;;;;;762482;181;645864;-79
2023/03/25 11:49:51;;;;;;;2.73;1.30;;;;;;;;;;764707;184;626742;-79
2023/03/25 11:52:16;;;;;;;2.93;1.20;;;;;;;;;;764467;180;649903;-81
2023/03/25 11:54:42;;;;;;;4.40;1.20;;;;;;;;;;749720;183;704005;-78
2023/03/25 11:57:10;;;;;;;7.47;1.80;;;;;;;;;;756975;183;628083;-78
2023/03/25 11:59:37;;;;;;;2.53;1.30;;;;;;;;;;751101;186;634611;-81
2023/03/25 12:02:02;;;;;;;4.23;2.00;;;;;;;;;;755964;181;654106;-79
2023/03/25 12:04:28;;;;;;;5.07;1.90;;;;;;;;;;758499;184;644148;-81
2023/03/25 12:06:56;;;;;;;3.50;1.73;;;;;;;;;;761225;185;637556;-78
2023/03/25 12:09:20;;;;;;;3.83;1.73;;;;;;;;;;751554;185;633717;-80
2023/03/25 12:11:47;;;;;;;3.37;1.30;;;;;;;;;;747298;188;644646;-78
2023/03/25 12:14:17;;;;;;;6.13;1.90;;;;;;;;;;756565;182;750355;-79
2023/03/25 12:16:46;;;;;;;3.20;1.47;;;;;;;;;;754956;182;635418;-79
2023/03/25 12:19:12;;;;;;;5.97;1.87;;;;;;;;;;749458;184;682906;-79
2023/03/25 12:21:51;;;;;;;5.00;1.93;;;;;;;;;;745482;183;619562;-78
2023/03/25 12:24:17;;;;;;;4.43;1.50;;;;;;;;;;747246;186;620980;-78
2023/03/25 12:26:47;;;;;;;4.30;1.60;;;;;;;;;;751515;185;679058;-79
2023/03/25 12:29:16;;;;;;;7.50;2.20;;;;;;;;;;729258;190;628442;-79
2023/03/25 12:32:02;;;;;;;8.13;1.73;;;;;;;;;;764107;183;647864;-79
2023/03/25 12:34:30;;;;;;;2.93;1.47;;;;;;;;;;768751;180;640742;-79
2023/03/25 12:37:06;;;;;;;2.83;1.33;;;;;;;;;;766197;182;640253;-78
2023/03/25 12:39:48;;;;;;;4.70;1.80;;;;;;;;;;766756;183;628095;-79
2023/03/25 12:42:29;;;;;;;4.40;1.70;;;;;;;;;;766318;184;624807;-80
2023/03/25 12:44:54;;;;;;;2.63;1.20;;;;;;;;;;763836;180;641058;-79
2023/03/25 12:47:24;;;;;;;3.87;1.53;;;;;;;;;;749729;186;696150;-78
2023/03/25 12:49:49;;;;;;;3.23;1.80;;;;;;;;;;767839;181;695236;-79
2023/03/25 12:52:15;;;;;;;3.00;1.83;;;;;;;;;;762587;182;637520;-78
2023/03/25 12:54:41;;;;;;;3.57;1.70;;;;;;;;;;757786;184;635401;-79
2023/03/25 12:57:07;;;;;;;3.80;1.83;;;;;;;;;;758874;183;626475;-77
2023/03/25 12:59:44;;;;;;;4.80;2.50;;;;;;;;;;749982;183;637104;-81
2023/03/25 13:02:15;;;;;;;3.60;1.47;;;;;;;;;;763379;182;626787;-80
2023/03/25 13:04:58;;;;;;;2.87;1.27;;;;;;;;;;762054;182;637730;-78
2023/03/25 13:07:26;;;;;;;2.17;1.00;;;;;;;;;;765960;179;694679;-77
2023/03/25 13:10:07;;;;;;;2.30;1.10;;;;;;;;;;759881;182;649612;-81
2023/03/25 13:12:33;;;;;;;2.70;1.60;;;;;;;;;;757687;180;667769;-78
2023/03/25 13:15:08;;;;;;;3.23;1.20;;;;;;;;;;763908;182;635057;-80
2023/03/25 13:17:33;;;;;;;2.60;1.10;;;;;;;;;;758581;185;634956;-79
2023/03/25 13:19:59;;;;;;;6.70;1.20;;;;;;;;;;761918;183;627023;-79
2023/03/25 13:22:25;;;;;;;2.80;1.00;;;;;;;;;;751232;185;702563;-80
2023/03/25 13:24:52;;;;;;;2.60;1.20;;;;;;;;;;751111;185;645860;-81
2023/03/25 13:27:18;;;;;;;2.83;1.10;;;;;;;;;;752522;183;629776;-81
2023/03/25 13:29:47;;;;;;;3.67;1.43;;;;;;;;;;763953;181;627317;-80
2023/03/25 13:32:14;;;;;;;3.10;1.23;;;;;;;;;;768072;182;631118;-80
2023/03/25 13:34:43;;;;;;;3.33;1.37;;;;;;;;;;754182;183;631532;-81
2023/03/25 13:37:19;;;;;;;6.20;1.67;;;;;;;;;;768229;179;805458;-81
2023/03/25 13:39:47;;;;;;;3.53;1.60;;;;;;;;;;759794;179;634188;-81
2023/03/25 13:42:13;;;;;;;3.03;1.10;;;;;;;;;;743352;187;632217;-82
2023/03/25 13:44:39;;;;;;;3.70;1.20;;;;;;;;;;747429;184;682523;-82
2023/03/25 13:47:06;;;;;;;4.03;1.77;;;;;;;;;;771380;181;661068;-80
2023/03/25 13:49:32;;;;;;;2.30;1.40;;;;;;;;;;754731;184;634435;-80
2023/03/25 13:51:58;;;;;;;3.50;1.50;;;;;;;;;;757325;183;637774;-80
2023/03/25 13:54:24;;;;;;;5.20;1.60;;;;;;;;;;759582;182;634674;-80
2023/03/25 13:56:56;;;;;;;3.30;1.60;;;;;;;;;;762032;182;637386;-79
2023/03/25 13:59:26;;;;;;;4.03;1.63;;;;;;;;;;762015;183;666327;-80
2023/03/25 14:01:52;;;;;;;3.27;1.60;;;;;;;;;;762120;182;627856;-79
2023/03/25 14:04:33;;;;;;;3.80;1.50;;;;;;;;;;763875;183;620421;-81
2023/03/25 14:07:14;;;;;;;4.00;2.27;;;;;;;;;;754735;186;645443;-80
2023/03/25 14:09:41;;;;;;;5.23;1.47;;;;;;;;;;772614;182;700864;-81
2023/03/25 14:12:09;;;;;;;3.60;1.50;;;;;;;;;;769080;179;630536;-79
2023/03/25 14:14:35;;;;;;;4.77;1.63;;;;;;;;;;765397;179;684646;-79
2023/03/25 14:17:00;;;;;;;3.40;1.67;;;;;;;;;;757400;182;650563;-81
2023/03/25 14:19:26;;;;;;;3.50;1.33;;;;;;;;;;760532;183;689720;-80
2023/03/25 14:21:52;;;;;;;3.07;1.60;;;;;;;;;;753422;185;707515;-80
2023/03/25 14:24:19;;;;;;;3.20;1.40;;;;;;;;;;766957;182;626917;-79
2023/03/25 14:26:48;;;;;;;2.50;1.50;;;;;;;;;;765110;182;637417;-79
2023/03/25 14:29:28;;;;;;;4.73;1.40;;;;;;;;;;754681;184;672963;-81